sensor_id;sensor_type;location;lat;lon;timestamp;pressure;altitude;pressure_sealevel;temperature;humidity
61436;BME280;47304;47.456;19.160;2023-09-30T13:57:59;100709.61;;;21.13;59.29
61436;BME280;47304;47.456;19.160;2023-09-30T14:00:26;100709.61;;;21.27;58.86
61436;BME280;47304;47.456;19.160;2023-09-30T14:02:53;100705.23;;;21.47;58.83
61436;BME280;47304;47.456;19.160;2023-09-30T14:05:19;100700.65;;;21.68;58.54
61436;BME280;47304;47.456;19.160;2023-09-30T14:07:46;100699.99;;;21.88;58.12
61436;BME280;47304;47.456;19.160;2023-09-30T14:10:12;100699.20;;;22.07;57.68
61436;BME280;47304;47.456;19.160;2023-09-30T14:12:39;100700.15;;;22.22;57.30
61436;BME280;47304;47.456;19.160;2023-09-30T14:15:07;100695.05;;;22.37;57.00
61436;BME280;47304;47.456;19.160;2023-09-30T14:17:34;100693.30;;;22.53;56.40
61436;BME280;47304;47.456;19.160;2023-09-30T14:20:00;100693.94;;;22.58;55.84
61436;BME280;47304;47.456;19.160;2023-09-30T14:22:27;100695.44;;;22.57;55.74
61436;BME280;47304;47.456;19.160;2023-09-30T14:24:53;100698.12;;;22.53;55.75
61436;BME280;47304;47.456;19.160;2023-09-30T14:30:23;100696.28;;;22.33;55.88
61436;BME280;47304;47.456;19.160;2023-09-30T14:32:49;100698.38;;;22.18;56.26
61436;BME280;47304;47.456;19.160;2023-09-30T14:35:16;100695.05;;;22.08;56.48
61436;BME280;47304;47.456;19.160;2023-09-30T14:37:42;100689.49;;;22.01;56.44
61436;BME280;47304;47.456;19.160;2023-09-30T14:40:09;100685.98;;;21.95;56.62
61436;BME280;47304;47.456;19.160;2023-09-30T14:42:37;100683.69;;;21.90;56.86
61436;BME280;47304;47.456;19.160;2023-09-30T14:45:04;100683.73;;;21.89;56.96
61436;BME280;47304;47.456;19.160;2023-09-30T14:47:31;100680.86;;;21.90;57.10
61436;BME280;47304;47.456;19.160;2023-09-30T14:49:58;100679.14;;;21.93;57.19
61436;BME280;47304;47.456;19.160;2023-09-30T14:52:24;100677.67;;;21.97;57.19
61436;BME280;47304;47.456;19.160;2023-09-30T14:54:51;100673.90;;;22.02;57.25
61436;BME280;47304;47.456;19.160;2023-09-30T14:57:17;100675.98;;;22.07;57.20
61436;BME280;47304;47.456;19.160;2023-09-30T14:59:44;100673.88;;;22.11;57.06
61436;BME280;47304;47.456;19.160;2023-09-30T15:02:10;100673.33;;;22.15;57.15
61436;BME280;47304;47.456;19.160;2023-09-30T15:04:37;100671.90;;;22.20;57.23
61436;BME280;47304;47.456;19.160;2023-09-30T15:07:07;100671.86;;;22.20;57.07
61436;BME280;47304;47.456;19.160;2023-09-30T15:09:33;100667.13;;;22.19;57.23
61436;BME280;47304;47.456;19.160;2023-09-30T15:14:18;100669.29;;;22.18;57.35
61436;BME280;47304;47.456;19.160;2023-09-30T15:16:44;100672.21;;;22.12;57.38
61436;BME280;47304;47.456;19.160;2023-09-30T15:19:11;100673.23;;;22.09;57.31
61436;BME280;47304;47.456;19.160;2023-09-30T15:21:38;100679.66;;;22.05;57.47
61436;BME280;47304;47.456;19.160;2023-09-30T15:24:05;100678.98;;;22.00;57.41
61436;BME280;47304;47.456;19.160;2023-09-30T15:26:32;100678.75;;;21.93;57.51
61436;BME280;47304;47.456;19.160;2023-09-30T15:28:58;100676.21;;;21.86;57.79
61436;BME280;47304;47.456;19.160;2023-09-30T15:31:31;100682.21;;;21.79;57.77
61436;BME280;47304;47.456;19.160;2023-09-30T15:33:59;100679.83;;;21.72;58.12
61436;BME280;47304;47.456;19.160;2023-09-30T15:36:26;100681.48;;;21.66;58.07
61436;BME280;47304;47.456;19.160;2023-09-30T15:38:53;100675.84;;;21.61;58.37
61436;BME280;47304;47.456;19.160;2023-09-30T15:41:22;100679.86;;;21.58;58.73
61436;BME280;47304;47.456;19.160;2023-09-30T15:43:49;100677.77;;;21.52;59.07
61436;BME280;47304;47.456;19.160;2023-09-30T15:46:16;100677.34;;;21.45;58.92
61436;BME280;47304;47.456;19.160;2023-09-30T15:48:43;100677.55;;;21.40;59.08
61436;BME280;47304;47.456;19.160;2023-09-30T15:51:09;100676.91;;;21.33;59.07
61436;BME280;47304;47.456;19.160;2023-09-30T15:53:36;100676.39;;;21.29;59.54
61436;BME280;47304;47.456;19.160;2023-09-30T15:56:03;100675.87;;;21.24;59.65
61436;BME280;47304;47.456;19.160;2023-09-30T15:58:29;100674.64;;;21.19;59.89
61436;BME280;47304;47.456;19.160;2023-09-30T16:00:56;100678.53;;;21.15;59.75
61436;BME280;47304;47.456;19.160;2023-09-30T16:03:23;100682.48;;;21.10;60.09
61436;BME280;47304;47.456;19.160;2023-09-30T16:05:50;100683.55;;;21.05;60.18
61436;BME280;47304;47.456;19.160;2023-09-30T16:08:16;100680.35;;;21.00;60.52
61436;BME280;47304;47.456;19.160;2023-09-30T16:10:43;100678.20;;;20.96;60.71
61436;BME280;47304;47.456;19.160;2023-09-30T16:13:10;100680.36;;;20.91;61.00
61436;BME280;47304;47.456;19.160;2023-09-30T16:15:41;100680.73;;;20.86;61.20
61436;BME280;47304;47.456;19.160;2023-09-30T16:18:08;100684.60;;;20.82;61.50
61436;BME280;47304;47.456;19.160;2023-09-30T16:20:35;100684.93;;;20.79;61.58
61436;BME280;47304;47.456;19.160;2023-09-30T16:23:02;100688.08;;;20.75;61.59
61436;BME280;47304;47.456;19.160;2023-09-30T16:25:28;100688.88;;;20.72;61.83
61436;BME280;47304;47.456;19.160;2023-09-30T16:27:55;100690.57;;;20.70;61.94
61436;BME280;47304;47.456;19.160;2023-09-30T16:30:26;100690.67;;;20.67;62.11
61436;BME280;47304;47.456;19.160;2023-09-30T16:32:52;100692.70;;;20.65;62.15
61436;BME280;47304;47.456;19.160;2023-09-30T16:35:19;100695.27;;;20.63;62.28
61436;BME280;47304;47.456;19.160;2023-09-30T16:37:46;100695.02;;;20.61;62.39
61436;BME280;47304;47.456;19.160;2023-09-30T16:40:12;100691.88;;;20.58;62.61
61436;BME280;47304;47.456;19.160;2023-09-30T16:42:39;100695.17;;;20.55;62.65
61436;BME280;47304;47.456;19.160;2023-09-30T16:45:06;100695.56;;;20.55;62.80
61436;BME280;47304;47.456;19.160;2023-09-30T16:47:32;100697.95;;;20.53;62.68
61436;BME280;47304;47.456;19.160;2023-09-30T16:49:59;100700.34;;;20.51;62.84
61436;BME280;47304;47.456;19.160;2023-09-30T16:52:25;100698.39;;;20.50;63.01
61436;BME280;47304;47.456;19.160;2023-09-30T16:54:52;100695.54;;;20.50;63.25
61436;BME280;47304;47.456;19.160;2023-09-30T16:57:19;100696.14;;;20.49;63.05
61436;BME280;47304;47.456;19.160;2023-09-30T16:59:45;100697.63;;;20.47;63.14
61436;BME280;47304;47.456;19.160;2023-09-30T17:02:12;100700.25;;;20.43;63.32
61436;BME280;47304;47.456;19.160;2023-09-30T17:04:42;100701.07;;;20.40;63.46
61436;BME280;47304;47.456;19.160;2023-09-30T17:07:09;100701.20;;;20.37;63.61
61436;BME280;47304;47.456;19.160;2023-09-30T17:09:36;100702.04;;;20.33;63.55
61436;BME280;47304;47.456;19.160;2023-09-30T17:12:03;100705.20;;;20.29;63.61
61436;BME280;47304;47.456;19.160;2023-09-30T17:14:29;100710.66;;;20.26;63.71
61436;BME280;47304;47.456;19.160;2023-09-30T17:16:56;100713.77;;;20.23;63.87
61436;BME280;47304;47.456;19.160;2023-09-30T17:19:23;100708.15;;;20.21;64.04
61436;BME280;47304;47.456;19.160;2023-09-30T17:21:49;100711.10;;;20.18;63.97
61436;BME280;47304;47.456;19.160;2023-09-30T17:24:16;100717.07;;;20.16;64.02
61436;BME280;47304;47.456;19.160;2023-09-30T17:26:42;100717.54;;;20.12;64.11
61436;BME280;47304;47.456;19.160;2023-09-30T17:29:09;100722.59;;;20.10;64.13
61436;BME280;47304;47.456;19.160;2023-09-30T17:31:35;100724.83;;;20.07;64.28
61436;BME280;47304;47.456;19.160;2023-09-30T17:34:02;100729.15;;;20.05;64.19
61436;BME280;47304;47.456;19.160;2023-09-30T17:36:29;100727.23;;;20.04;64.37
61436;BME280;47304;47.456;19.160;2023-09-30T17:38:55;100725.29;;;20.03;64.45
61436;BME280;47304;47.456;19.160;2023-09-30T17:41:23;100723.73;;;20.02;64.47
61436;BME280;47304;47.456;19.160;2023-09-30T17:43:49;100726.83;;;20.00;64.50
61436;BME280;47304;47.456;19.160;2023-09-30T17:46:16;100725.17;;;19.97;64.59
61436;BME280;47304;47.456;19.160;2023-09-30T17:48:43;100724.27;;;19.92;64.79
61436;BME280;47304;47.456;19.160;2023-09-30T17:51:13;100722.48;;;19.87;64.99
61436;BME280;47304;47.456;19.160;2023-09-30T17:53:41;100723.67;;;19.82;65.18
61436;BME280;47304;47.456;19.160;2023-09-30T17:56:15;100723.61;;;19.78;65.21
61436;BME280;47304;47.456;19.160;2023-09-30T17:58:41;100728.04;;;19.74;65.38
61436;BME280;47304;47.456;19.160;2023-09-30T18:01:08;100727.98;;;19.70;65.56
61436;BME280;47304;47.456;19.160;2023-09-30T18:03:35;100731.64;;;19.67;65.60
61436;BME280;47304;47.456;19.160;2023-09-30T18:06:09;100734.02;;;19.64;65.73
61436;BME280;47304;47.456;19.160;2023-09-30T18:08:39;100739.27;;;19.62;65.77
61436;BME280;47304;47.456;19.160;2023-09-30T18:11:06;100739.02;;;19.58;66.00
61436;BME280;47304;47.456;19.160;2023-09-30T18:13:33;100744.98;;;19.55;66.08
61436;BME280;47304;47.456;19.160;2023-09-30T18:16:00;100743.43;;;19.54;66.17
61436;BME280;47304;47.456;19.160;2023-09-30T18:18:28;100744.55;;;19.52;66.22
61436;BME280;47304;47.456;19.160;2023-09-30T18:20:55;100744.77;;;19.51;66.14
61436;BME280;47304;47.456;19.160;2023-09-30T18:23:22;100746.89;;;19.51;66.12
61436;BME280;47304;47.456;19.160;2023-09-30T18:25:49;100746.41;;;19.49;66.05
61436;BME280;47304;47.456;19.160;2023-09-30T18:28:16;100748.27;;;19.47;66.05
61436;BME280;47304;47.456;19.160;2023-09-30T18:30:43;100744.61;;;19.44;66.08
61436;BME280;47304;47.456;19.160;2023-09-30T18:33:12;100739.52;;;19.42;66.20
61436;BME280;47304;47.456;19.160;2023-09-30T18:35:42;100742.96;;;19.40;66.18
61436;BME280;47304;47.456;19.160;2023-09-30T18:38:09;100740.36;;;19.38;66.23
61436;BME280;47304;47.456;19.160;2023-09-30T18:40:36;100747.03;;;19.35;66.24
61436;BME280;47304;47.456;19.160;2023-09-30T18:43:07;100747.46;;;19.32;66.38
61436;BME280;47304;47.456;19.160;2023-09-30T18:45:34;100754.44;;;19.31;66.44
61436;BME280;47304;47.456;19.160;2023-09-30T18:48:00;100751.86;;;19.28;66.66
61436;BME280;47304;47.456;19.160;2023-09-30T18:50:27;100746.77;;;19.26;66.64
61436;BME280;47304;47.456;19.160;2023-09-30T18:52:53;100747.36;;;19.24;66.57
61436;BME280;47304;47.456;19.160;2023-09-30T18:55:20;100740.50;;;19.22;66.58
61436;BME280;47304;47.456;19.160;2023-09-30T18:57:46;100741.27;;;19.20;66.62
61436;BME280;47304;47.456;19.160;2023-09-30T19:00:13;100740.49;;;19.16;66.80
61436;BME280;47304;47.456;19.160;2023-09-30T19:02:40;100740.41;;;19.13;66.69
61436;BME280;47304;47.456;19.160;2023-09-30T19:05:07;100745.14;;;19.09;66.77
61436;BME280;47304;47.456;19.160;2023-09-30T19:07:34;100744.73;;;19.05;66.88
61436;BME280;47304;47.456;19.160;2023-09-30T19:10:01;100740.54;;;19.03;66.98
61436;BME280;47304;47.456;19.160;2023-09-30T19:12:27;100738.27;;;19.01;66.93
61436;BME280;47304;47.456;19.160;2023-09-30T19:14:54;100733.70;;;19.00;67.10
61436;BME280;47304;47.456;19.160;2023-09-30T19:17:21;100735.16;;;18.98;67.10
61436;BME280;47304;47.456;19.160;2023-09-30T19:19:47;100734.16;;;18.96;67.05
61436;BME280;47304;47.456;19.160;2023-09-30T19:22:14;100740.92;;;18.95;66.97
61436;BME280;47304;47.456;19.160;2023-09-30T19:24:40;100743.65;;;18.93;66.93
61436;BME280;47304;47.456;19.160;2023-09-30T19:27:07;100743.36;;;18.90;67.02
61436;BME280;47304;47.456;19.160;2023-09-30T19:29:33;100746.48;;;18.87;67.10
61436;BME280;47304;47.456;19.160;2023-09-30T19:32:00;100746.71;;;18.84;67.12
61436;BME280;47304;47.456;19.160;2023-09-30T19:34:27;100746.41;;;18.83;67.27
61436;BME280;47304;47.456;19.160;2023-09-30T19:36:53;100747.35;;;18.80;67.21
61436;BME280;47304;47.456;19.160;2023-09-30T19:39:20;100748.66;;;18.79;67.21
61436;BME280;47304;47.456;19.160;2023-09-30T19:41:46;100752.42;;;18.77;67.21
61436;BME280;47304;47.456;19.160;2023-09-30T19:44:13;100754.59;;;18.76;67.31
61436;BME280;47304;47.456;19.160;2023-09-30T19:46:39;100754.48;;;18.73;67.18
61436;BME280;47304;47.456;19.160;2023-09-30T19:49:06;100756.48;;;18.71;67.20
61436;BME280;47304;47.456;19.160;2023-09-30T19:51:33;100759.52;;;18.70;67.25
61436;BME280;47304;47.456;19.160;2023-09-30T19:53:59;100758.86;;;18.69;67.34
61436;BME280;47304;47.456;19.160;2023-09-30T19:56:26;100761.89;;;18.68;67.33
61436;BME280;47304;47.456;19.160;2023-09-30T19:58:52;100759.84;;;18.66;67.22
61436;BME280;47304;47.456;19.160;2023-09-30T20:01:19;100763.26;;;18.64;67.18
61436;BME280;47304;47.456;19.160;2023-09-30T20:03:46;100764.17;;;18.63;67.28
61436;BME280;47304;47.456;19.160;2023-09-30T20:06:20;100761.55;;;18.62;67.19
61436;BME280;47304;47.456;19.160;2023-09-30T20:08:48;100766.20;;;18.60;67.15
61436;BME280;47304;47.456;19.160;2023-09-30T20:11:23;100763.75;;;18.59;67.03
61436;BME280;47304;47.456;19.160;2023-09-30T20:13:51;100761.67;;;18.57;66.91
61436;BME280;47304;47.456;19.160;2023-09-30T20:16:18;100760.66;;;18.55;66.88
61436;BME280;47304;47.456;19.160;2023-09-30T20:18:44;100757.85;;;18.54;66.91
61436;BME280;47304;47.456;19.160;2023-09-30T20:21:11;100753.61;;;18.53;66.95
61436;BME280;47304;47.456;19.160;2023-09-30T20:23:39;100757.17;;;18.53;66.98
61436;BME280;47304;47.456;19.160;2023-09-30T20:26:05;100759.54;;;18.51;67.12
61436;BME280;47304;47.456;19.160;2023-09-30T20:28:32;100757.27;;;18.49;67.13
61436;BME280;47304;47.456;19.160;2023-09-30T20:31:01;100756.98;;;18.47;67.17
61436;BME280;47304;47.456;19.160;2023-09-30T20:33:28;100763.97;;;18.45;67.22
61436;BME280;47304;47.456;19.160;2023-09-30T20:35:54;100763.13;;;18.43;67.03
61436;BME280;47304;47.456;19.160;2023-09-30T20:38:21;100761.95;;;18.40;67.05
61436;BME280;47304;47.456;19.160;2023-09-30T20:40:47;100756.68;;;18.38;67.12
61436;BME280;47304;47.456;19.160;2023-09-30T20:43:14;100757.79;;;18.37;67.12
61436;BME280;47304;47.456;19.160;2023-09-30T20:45:41;100758.04;;;18.34;67.20
61436;BME280;47304;47.456;19.160;2023-09-30T20:48:07;100756.37;;;18.30;67.18
61436;BME280;47304;47.456;19.160;2023-09-30T20:50:34;100757.19;;;18.26;67.19
61436;BME280;47304;47.456;19.160;2023-09-30T20:53:01;100766.52;;;18.21;67.25
61436;BME280;47304;47.456;19.160;2023-09-30T20:55:31;100766.45;;;18.16;67.39
61436;BME280;47304;47.456;19.160;2023-09-30T20:57:58;100766.41;;;18.12;67.40
61436;BME280;47304;47.456;19.160;2023-09-30T21:00:25;100773.23;;;18.08;67.44
61436;BME280;47304;47.456;19.160;2023-09-30T21:02:51;100776.33;;;18.05;67.48
61436;BME280;47304;47.456;19.160;2023-09-30T21:05:18;100774.84;;;18.01;67.54
61436;BME280;47304;47.456;19.160;2023-09-30T21:07:45;100774.91;;;17.98;67.60
61436;BME280;47304;47.456;19.160;2023-09-30T21:10:11;100768.79;;;17.93;67.59
61436;BME280;47304;47.456;19.160;2023-09-30T21:12:38;100771.34;;;17.90;67.71
61436;BME280;47304;47.456;19.160;2023-09-30T21:15:05;100774.23;;;17.88;67.81
61436;BME280;47304;47.456;19.160;2023-09-30T21:17:32;100776.77;;;17.85;67.84
61436;BME280;47304;47.456;19.160;2023-09-30T21:19:59;100780.03;;;17.83;67.83
61436;BME280;47304;47.456;19.160;2023-09-30T21:22:25;100782.38;;;17.81;67.87
61436;BME280;47304;47.456;19.160;2023-09-30T21:24:52;100781.37;;;17.78;67.85
61436;BME280;47304;47.456;19.160;2023-09-30T21:27:19;100783.54;;;17.77;67.85
61436;BME280;47304;47.456;19.160;2023-09-30T21:29:45;100789.58;;;17.76;67.94
61436;BME280;47304;47.456;19.160;2023-09-30T21:32:12;100788.42;;;17.73;67.98
61436;BME280;47304;47.456;19.160;2023-09-30T21:34:38;100783.35;;;17.70;68.01
61436;BME280;47304;47.456;19.160;2023-09-30T21:37:05;100783.23;;;17.67;67.98
61436;BME280;47304;47.456;19.160;2023-09-30T21:39:31;100784.40;;;17.63;68.02
61436;BME280;47304;47.456;19.160;2023-09-30T21:41:58;100788.02;;;17.59;68.06
61436;BME280;47304;47.456;19.160;2023-09-30T21:44:24;100789.48;;;17.57;68.10
61436;BME280;47304;47.456;19.160;2023-09-30T21:46:51;100792.55;;;17.55;68.03
61436;BME280;47304;47.456;19.160;2023-09-30T21:49:18;100794.70;;;17.54;68.12
61436;BME280;47304;47.456;19.160;2023-09-30T21:51:44;100798.42;;;17.53;68.12
61436;BME280;47304;47.456;19.160;2023-09-30T21:54:11;100796.48;;;17.53;68.13
61436;BME280;47304;47.456;19.160;2023-09-30T21:56:38;100794.04;;;17.51;68.02
61436;BME280;47304;47.456;19.160;2023-09-30T21:59:04;100793.70;;;17.51;67.97
61436;BME280;47304;47.456;19.160;2023-09-30T22:01:31;100797.25;;;17.50;67.93
61436;BME280;47304;47.456;19.160;2023-09-30T22:03:57;100798.35;;;17.49;67.88
61436;BME280;47304;47.456;19.160;2023-09-30T22:06:24;100804.71;;;17.49;67.76
61436;BME280;47304;47.456;19.160;2023-09-30T22:08:51;100807.22;;;17.48;67.84
61436;BME280;47304;47.456;19.160;2023-09-30T22:11:17;100810.27;;;17.47;67.87
61436;BME280;47304;47.456;19.160;2023-09-30T22:13:44;100812.03;;;17.46;67.86
61436;BME280;47304;47.456;19.160;2023-09-30T22:16:10;100811.88;;;17.45;67.81
61436;BME280;47304;47.456;19.160;2023-09-30T22:18:37;100811.04;;;17.44;67.86
61436;BME280;47304;47.456;19.160;2023-09-30T22:21:04;100811.63;;;17.41;67.84
61436;BME280;47304;47.456;19.160;2023-09-30T22:23:30;100816.45;;;17.39;67.90
61436;BME280;47304;47.456;19.160;2023-09-30T22:25:57;100819.69;;;17.37;67.72
61436;BME280;47304;47.456;19.160;2023-09-30T22:28:23;100823.23;;;17.35;67.68
61436;BME280;47304;47.456;19.160;2023-09-30T22:30:50;100825.05;;;17.34;67.63
61436;BME280;47304;47.456;19.160;2023-09-30T22:33:16;100822.92;;;17.34;67.52
61436;BME280;47304;47.456;19.160;2023-09-30T22:35:43;100821.54;;;17.33;67.68
61436;BME280;47304;47.456;19.160;2023-09-30T22:38:09;100824.02;;;17.33;67.64
61436;BME280;47304;47.456;19.160;2023-09-30T22:40:36;100822.23;;;17.33;67.58
61436;BME280;47304;47.456;19.160;2023-09-30T22:43:03;100826.16;;;17.32;67.50
61436;BME280;47304;47.456;19.160;2023-09-30T22:45:29;100825.52;;;17.29;67.49
61436;BME280;47304;47.456;19.160;2023-09-30T22:47:56;100825.56;;;17.26;67.63
61436;BME280;47304;47.456;19.160;2023-09-30T22:50:23;100824.20;;;17.24;67.62
61436;BME280;47304;47.456;19.160;2023-09-30T22:52:50;100824.77;;;17.22;67.60
61436;BME280;47304;47.456;19.160;2023-09-30T22:55:20;100826.92;;;17.20;67.52
61436;BME280;47304;47.456;19.160;2023-09-30T22:57:49;100826.42;;;17.20;67.44
61436;BME280;47304;47.456;19.160;2023-09-30T23:00:17;100833.39;;;17.16;67.44
61436;BME280;47304;47.456;19.160;2023-09-30T23:02:43;100830.80;;;17.13;67.41
61436;BME280;47304;47.456;19.160;2023-09-30T23:05:10;100836.49;;;17.11;67.45
61436;BME280;47304;47.456;19.160;2023-09-30T23:07:38;100840.44;;;17.09;67.51
61436;BME280;47304;47.456;19.160;2023-09-30T23:10:09;100839.77;;;17.06;67.51
61436;BME280;47304;47.456;19.160;2023-09-30T23:12:36;100841.98;;;17.03;67.52
61436;BME280;47304;47.456;19.160;2023-09-30T23:15:03;100848.40;;;17.00;67.50
61436;BME280;47304;47.456;19.160;2023-09-30T23:17:29;100852.00;;;16.96;67.58
61436;BME280;47304;47.456;19.160;2023-09-30T23:19:56;100849.40;;;16.93;67.60
61436;BME280;47304;47.456;19.160;2023-09-30T23:22:23;100849.95;;;16.90;67.75
61436;BME280;47304;47.456;19.160;2023-09-30T23:24:49;100851.79;;;16.88;67.76
61436;BME280;47304;47.456;19.160;2023-09-30T23:27:16;100858.58;;;16.84;67.89
61436;BME280;47304;47.456;19.160;2023-09-30T23:29:43;100866.11;;;16.79;67.87
61436;BME280;47304;47.456;19.160;2023-09-30T23:32:10;100869.73;;;16.74;67.97
61436;BME280;47304;47.456;19.160;2023-09-30T23:34:37;100870.52;;;16.70;68.07
61436;BME280;47304;47.456;19.160;2023-09-30T23:37:03;100877.27;;;16.68;68.12
61436;BME280;47304;47.456;19.160;2023-09-30T23:39:30;100881.38;;;16.65;68.15
61436;BME280;47304;47.456;19.160;2023-09-30T23:41:57;100882.84;;;16.63;68.16
61436;BME280;47304;47.456;19.160;2023-09-30T23:44:23;100883.77;;;16.59;68.25
61436;BME280;47304;47.456;19.160;2023-09-30T23:46:50;100889.69;;;16.57;68.31
61436;BME280;47304;47.456;19.160;2023-09-30T23:49:16;100891.65;;;16.54;68.31
61436;BME280;47304;47.456;19.160;2023-09-30T23:51:43;100893.48;;;16.51;68.40
61436;BME280;47304;47.456;19.160;2023-09-30T23:54:10;100895.81;;;16.48;68.28
61436;BME280;47304;47.456;19.160;2023-09-30T23:56:37;100899.21;;;16.46;68.35
61436;BME280;47304;47.456;19.160;2023-09-30T23:59:04;100896.59;;;16.44;68.38
